Sheoaks, Victoria

7:24 PM AEST on August 29, 2015 (GMT +1000)
Lethbridge | | Change Station
CLOSE
Current Station
Personal Weather Station
Location: Lethbridge, VICTORIA
Elevation: 620 ft
Nearby Weather Stations

Elev 620 ft 37.95 °S, 144.13 °E | Updated 6 minutes ago

Mostly Cloudy
Mostly Cloudy
47.4 °F
Feels Like 45 °F
N
6.0
Wind Variable Wind from WSW
Gusts 12.0 mph

Today
High -- | Low -- °F
--% Chance of Precip.
Yesterday
High -- | Low -- °F
Precip. -- in
6:50 AM 5:59 PM
Full, 100% visible
Pressure 30.30 in
Visibility 6.2 miles
Clouds Scattered Clouds 1900 ft
Scattered Clouds 2300 ft
Mostly Cloudy 3100 ft
Windchill 45 °F
Dew Point 44 °F
Humidity 88%
Rainfall 0.00 in
Snow Depth Not available.
UV 0.0 out of 12
Pollen Not available.
Air Quality Not available.
Flu Activity Not available.
METAR YMAV 290900Z AUTO 23012KT 9999 // SCT019 SCT023 BKN031 10/07 Q1026
Pressure 30.30 in
Visibility 6.2 miles
Clouds Scattered Clouds 1900 ft
Scattered Clouds 2300 ft
Mostly Cloudy 3100 ft
Windchill 45 °F
Dew Point 44 °F
Humidity 88%
Rainfall 0.00 in
Snow Depth Not available.
UV 0.0 out of 12
Pollen Not available.
Air Quality Not available.
Flu Activity Not available.
METAR YMAV 290900Z AUTO 23012KT 9999 // SCT019 SCT023 BKN031 10/07 Q1026

10-Day Weather Forecast

×

Almanac

Astronomy

Aug. 29, 2015 Rise Set
Actual Time
Civil Twilight
Nautical Twilight
Astronomical Twilight
Moon
Length of Visible Light
Length of Day
Tomorrow will be .
, % of the Moon is Illuminated

Today's Extremes

Country Highs Country Lows

Community

WunderPhotos

Upload Photos

1,850,634 photos uploaded!

WunderBlogs® & News

Nearby

Air Quality

  Air Quality AQ Index Pollutant
Not available.

Snow Depth

Station Depth Elevation

Earthquake Activity

City Distance Mag. Time & Date
Minimum magnitude displayed is 2.5.

Coastal Water Temperatures

Place Temperature

Stations

Nearby Weather Stations

Station Location Temp. Windchill Dew Point Humidity Wind Precip. Elev Updated Type